Time;durP1;ratioP1;P1;durP2;ratioP2;P2;SDS_P1;SDS_P2;PMS_P1;PMS_P2;Temp;Humidity;BMP_temperature;BMP_pressure;BME280_temperature;BME280_humidity;BME280_pressure;Samples;Min_cycle;Max_cycle;Signal;HPM_P1;HPM_P2
2021/05/12 00:01:03;;;;;;;8.25;2.83;;;11.10;99.90;;;;;;10251793;28;20039;-80
2021/05/12 00:06:25;;;;;;;7.95;2.85;;;11.00;99.90;;;;;;10222886;28;20529;-79
2021/05/12 00:11:46;;;;;;;5.63;2.90;;;11.00;99.90;;;;;;10237122;28;20046;-80
2021/05/12 00:17:10;;;;;;;7.88;2.55;;;11.00;99.90;;;;;;10220263;28;20046;-79
2021/05/12 00:22:50;;;;;;;7.18;3.13;;;11.00;99.90;;;;;;10238666;28;20054;-79
2021/05/12 00:28:11;;;;;;;7.72;3.45;;;11.10;99.90;;;;;;10251806;28;20035;-80
2021/05/12 00:33:32;;;;;;;7.53;3.10;;;11.10;99.90;;;;;;10221947;28;20057;-80
2021/05/12 00:38:53;;;;;;;10.00;3.00;;;11.20;99.90;;;;;;10222615;28;20051;-80
2021/05/12 00:44:19;;;;;;;6.75;3.17;;;11.30;99.90;;;;;;10236419;28;21068;-80
2021/05/12 00:49:40;;;;;;;9.00;2.97;;;11.30;99.90;;;;;;10232214;28;20412;-78
2021/05/12 00:55:02;;;;;;;8.80;3.50;;;11.30;99.90;;;;;;10218423;28;20038;-80
2021/05/12 01:00:24;;;;;;;6.03;3.20;;;11.40;99.90;;;;;;10235949;28;20043;-79
2021/05/12 01:05:51;;;;;;;6.78;2.85;;;11.30;99.90;;;;;;10249753;28;20122;-79
2021/05/12 01:11:12;;;;;;;13.82;4.45;;;11.30;99.90;;;;;;10248302;28;20306;-79
2021/05/12 01:16:33;;;;;;;11.23;3.83;;;11.30;99.90;;;;;;10246150;28;20093;-80
2021/05/12 01:21:55;;;;;;;8.18;3.72;;;11.30;99.90;;;;;;10228924;28;20206;-79
2021/05/12 01:27:17;;;;;;;7.32;3.13;;;11.30;99.90;;;;;;10233365;28;20536;-80
2021/05/12 01:32:38;;;;;;;8.38;4.18;;;11.30;99.90;;;;;;10244103;28;20644;-80
2021/05/12 01:38:00;;;;;;;7.63;3.85;;;11.20;99.90;;;;;;10228194;28;20051;-81
2021/05/12 01:43:21;;;;;;;6.38;3.20;;;11.20;99.90;;;;;;10241488;28;20090;-79
2021/05/12 01:48:43;;;;;;;7.82;3.75;;;11.10;99.90;;;;;;10228309;28;20137;-79
2021/05/12 01:54:07;;;;;;;7.68;3.63;;;11.00;99.90;;;;;;10243169;28;20043;-79
2021/05/12 01:59:28;;;;;;;7.72;3.08;;;10.90;99.90;;;;;;10231062;28;20073;-78
2021/05/12 02:04:49;;;;;;;5.75;2.65;;;10.80;99.90;;;;;;10240541;28;20402;-78
2021/05/12 02:10:10;;;;;;;7.93;3.78;;;10.70;99.90;;;;;;10245457;28;20486;-80
2021/05/12 02:15:31;;;;;;;6.60;2.78;;;10.60;99.90;;;;;;10237851;28;20657;-79
2021/05/12 02:20:53;;;;;;;9.70;4.18;;;10.60;99.90;;;;;;10238978;28;20044;-80
2021/05/12 02:26:14;;;;;;;10.10;3.80;;;10.60;99.90;;;;;;10286680;28;20045;-80
2021/05/12 02:31:34;;;;;;;11.70;4.40;;;10.50;99.90;;;;;;10236447;28;20042;-79
2021/05/12 02:36:55;;;;;;;8.73;4.07;;;10.50;99.90;;;;;;10241034;28;20047;-79
2021/05/12 02:42:17;;;;;;;9.95;4.55;;;10.40;99.90;;;;;;10254681;28;20046;-80
2021/05/12 02:47:39;;;;;;;10.98;4.57;;;10.30;99.90;;;;;;10242392;28;20043;-79
2021/05/12 02:53:01;;;;;;;10.18;3.92;;;10.30;99.90;;;;;;10241282;28;20101;-79
2021/05/12 02:58:22;;;;;;;9.43;5.10;;;10.20;99.90;;;;;;10253081;28;20065;-79
2021/05/12 03:03:43;;;;;;;12.55;5.40;;;10.10;99.90;;;;;;10252074;28;20501;-79
2021/05/12 03:09:06;;;;;;;10.55;4.90;;;10.20;99.90;;;;;;10225452;28;20046;-79
2021/05/12 03:14:29;;;;;;;10.00;5.32;;;10.10;99.90;;;;;;10233647;28;20054;-79
2021/05/12 03:19:50;;;;;;;13.10;5.40;;;10.10;99.90;;;;;;10235202;28;20477;-79
2021/05/12 03:25:13;;;;;;;12.68;4.40;;;10.30;99.90;;;;;;10244318;28;20043;-80
2021/05/12 03:30:36;;;;;;;10.10;4.65;;;10.20;99.90;;;;;;10252551;28;20038;-79
2021/05/12 03:35:57;;;;;;;9.18;4.63;;;10.20;99.90;;;;;;10237881;28;20059;-79
2021/05/12 03:41:19;;;;;;;9.50;4.53;;;10.10;99.90;;;;;;10207103;28;20592;-79
2021/05/12 03:46:40;;;;;;;10.32;4.72;;;9.90;99.90;;;;;;10241876;28;20077;-79
2021/05/12 03:52:01;;;;;;;12.32;4.85;;;9.90;99.90;;;;;;10235839;28;20371;-79
2021/05/12 03:57:21;;;;;;;6.43;3.90;;;9.80;99.90;;;;;;10249001;28;20046;-79
2021/05/12 04:02:43;;;;;;;6.22;3.95;;;9.70;99.90;;;;;;10234726;28;20522;-79
2021/05/12 04:08:04;;;;;;;11.05;3.65;;;9.60;99.90;;;;;;10249815;28;20539;-79
2021/05/12 04:13:25;;;;;;;7.13;4.00;;;9.60;99.90;;;;;;10220222;28;20467;-79
2021/05/12 04:18:46;;;;;;;11.38;4.60;;;9.60;99.90;;;;;;10223654;28;20133;-79
2021/05/12 04:24:07;;;;;;;9.07;3.70;;;9.60;99.90;;;;;;10242103;28;20043;-79
2021/05/12 04:29:29;;;;;;;9.32;3.83;;;9.60;99.90;;;;;;10238902;28;20171;-79
2021/05/12 04:34:50;;;;;;;12.60;3.50;;;9.60;99.90;;;;;;10221626;28;20413;-79
2021/05/12 04:40:11;;;;;;;8.05;3.15;;;9.60;99.90;;;;;;10235740;28;20046;-80
2021/05/12 04:45:32;;;;;;;6.63;2.95;;;9.60;99.90;;;;;;10213110;28;20194;-79
2021/05/12 04:50:53;;;;;;;5.93;2.17;;;9.70;99.90;;;;;;10220667;28;20089;-79
2021/05/12 04:56:15;;;;;;;7.45;3.15;;;9.80;99.90;;;;;;10227183;28;20047;-79
2021/05/12 05:01:36;;;;;;;7.57;2.63;;;9.90;99.90;;;;;;10250489;28;20129;-79
2021/05/12 05:06:57;;;;;;;9.30;2.70;;;10.20;99.90;;;;;;10265508;28;20046;-79
2021/05/12 05:12:18;;;;;;;9.50;3.78;;;10.40;99.90;;;;;;10247550;28;20117;-79
2021/05/12 05:17:41;;;;;;;6.45;2.90;;;10.50;99.90;;;;;;10263973;28;20051;-79
2021/05/12 05:23:05;;;;;;;7.13;3.13;;;10.70;99.90;;;;;;10239392;28;20043;-80
2021/05/12 05:28:26;;;;;;;10.30;3.63;;;10.80;99.90;;;;;;10241817;28;20054;-80
2021/05/12 05:33:47;;;;;;;9.50;3.50;;;11.00;99.90;;;;;;10250895;28;20174;-79
2021/05/12 05:39:08;;;;;;;6.30;3.30;;;11.20;99.90;;;;;;10236288;28;20054;-81
2021/05/12 05:44:29;;;;;;;9.25;3.10;;;11.30;99.90;;;;;;10241233;28;20113;-80
2021/05/12 05:49:50;;;;;;;7.32;3.20;;;11.50;99.90;;;;;;10231163;28;20058;-79
2021/05/12 05:55:12;;;;;;;8.75;3.03;;;11.60;99.90;;;;;;10234917;28;20054;-80
2021/05/12 06:00:33;;;;;;;7.32;2.53;;;11.70;99.90;;;;;;10250975;28;20043;-79
2021/05/12 06:05:54;;;;;;;4.60;1.92;;;11.90;99.90;;;;;;10232796;28;20098;-80
2021/05/12 06:11:15;;;;;;;4.90;2.40;;;12.00;99.90;;;;;;10237688;28;20462;-79
2021/05/12 06:16:36;;;;;;;20.60;2.97;;;12.00;99.90;;;;;;10226592;28;20486;-80
2021/05/12 06:21:56;;;;;;;4.68;2.00;;;12.10;99.90;;;;;;10229616;28;20430;-79
2021/05/12 06:27:22;;;;;;;4.72;1.30;;;12.10;99.90;;;;;;10251364;28;20156;-86
2021/05/12 06:32:43;;;;;;;3.47;1.30;;;12.20;99.90;;;;;;10187312;28;20370;-79
2021/05/12 06:38:04;;;;;;;2.28;0.82;;;12.30;99.90;;;;;;10220713;28;20538;-80
2021/05/12 06:43:26;;;;;;;5.13;1.02;;;12.40;99.90;;;;;;10224050;28;20042;-79
2021/05/12 06:48:47;;;;;;;3.72;0.70;;;12.60;99.90;;;;;;10222360;28;20141;-79
2021/05/12 06:54:08;;;;;;;1.17;0.47;;;12.50;99.90;;;;;;10240329;28;20372;-79
2021/05/12 06:59:29;;;;;;;3.53;0.90;;;12.70;99.90;;;;;;10236065;28;20074;-81
2021/05/12 07:04:50;;;;;;;7.05;1.15;;;12.70;99.90;;;;;;10265477;28;20053;-80
2021/05/12 07:10:12;;;;;;;1.17;0.40;;;12.70;99.90;;;;;;10240593;28;20038;-79
2021/05/12 07:15:33;;;;;;;2.75;0.70;;;12.70;99.90;;;;;;10234342;28;20078;-79
2021/05/12 07:20:54;;;;;;;10.43;1.17;;;13.00;99.90;;;;;;10261216;28;20590;-79
2021/05/12 07:26:15;;;;;;;1.95;0.73;;;13.10;99.90;;;;;;10247830;28;20043;-79
2021/05/12 07:31:37;;;;;;;3.95;0.80;;;13.10;99.90;;;;;;10221586;28;20039;-82
2021/05/12 07:36:58;;;;;;;4.68;0.85;;;13.10;99.90;;;;;;10226293;28;20150;-78
2021/05/12 07:42:20;;;;;;;2.10;0.40;;;13.30;99.90;;;;;;10237295;28;20644;-80
2021/05/12 07:47:41;;;;;;;1.55;0.32;;;13.50;99.90;;;;;;10250254;28;20110;-79
2021/05/12 07:53:03;;;;;;;3.65;1.10;;;13.50;99.90;;;;;;10222153;28;20057;-80
2021/05/12 07:58:24;;;;;;;2.65;0.57;;;13.60;99.90;;;;;;10254387;28;20414;-79
2021/05/12 08:03:45;;;;;;;8.60;1.88;;;13.70;99.90;;;;;;10224502;28;20261;-78
2021/05/12 08:09:09;;;;;;;2.78;0.40;;;13.90;99.90;;;;;;10264706;28;20067;-79
2021/05/12 08:14:30;;;;;;;2.00;0.28;;;14.00;99.90;;;;;;10228573;28;20381;-78
2021/05/12 08:19:51;;;;;;;2.05;0.40;;;14.20;99.90;;;;;;10260503;28;20342;-79
2021/05/12 08:25:12;;;;;;;1.58;0.47;;;14.40;99.90;;;;;;10250140;28;20286;-79
2021/05/12 08:30:36;;;;;;;7.05;1.88;;;14.40;99.90;;;;;;10244489;28;20046;-79
2021/05/12 08:35:57;;;;;;;1.17;0.50;;;14.50;99.90;;;;;;10228554;28;20066;-80
2021/05/12 08:41:19;;;;;;;10.10;0.82;;;14.60;99.90;;;;;;10243280;28;20055;-79
2021/05/12 08:46:42;;;;;;;1.40;0.50;;;14.80;99.90;;;;;;10244842;28;20047;-80
2021/05/12 08:52:03;;;;;;;1.38;0.60;;;15.20;99.90;;;;;;10254665;28;20168;-83
2021/05/12 08:57:24;;;;;;;2.17;0.70;;;15.70;99.90;;;;;;10268206;28;20047;-84
2021/05/12 09:02:46;;;;;;;4.45;0.90;;;15.70;99.90;;;;;;10233244;28;20509;-84
2021/05/12 09:08:07;;;;;;;1.73;0.47;;;15.60;99.90;;;;;;10232271;28;20042;-82
2021/05/12 09:13:39;;;;;;;8.00;0.75;;;15.90;99.90;;;;;;10230053;28;20054;-80
2021/05/12 09:19:08;;;;;;;1.48;0.20;;;16.00;99.90;;;;;;10234755;28;20145;-80
2021/05/12 09:24:34;;;;;;;2.28;0.80;;;16.00;99.90;;;;;;10171638;28;20039;-80
2021/05/12 09:30:00;;;;;;;2.58;1.05;;;16.10;99.90;;;;;;10250498;28;20055;-79
2021/05/12 09:35:24;;;;;;;5.93;0.65;;;16.60;99.90;;;;;;10245225;28;20662;-79
2021/05/12 09:40:58;;;;;;;3.50;1.17;;;16.40;99.90;;;;;;10273634;28;20043;-79
2021/05/12 09:46:23;;;;;;;6.85;1.25;;;16.10;99.90;;;;;;10276534;28;20743;-81
2021/05/12 09:51:47;;;;;;;3.40;0.90;;;16.60;99.90;;;;;;10276460;28;20219;-79
2021/05/12 10:07:28;;;;;;;4.57;0.85;;;17.80;99.90;;;;;;3790746;23;20375;-46
2021/05/12 10:12:49;;;;;;;3.90;1.20;;;18.10;99.90;;;;;;10297206;28;20050;-46
2021/05/12 10:18:11;;;;;;;1.13;0.60;;;18.30;99.90;;;;;;10295617;28;20701;-46
2021/05/12 10:23:32;;;;;;;3.38;0.90;;;18.00;99.90;;;;;;10292966;28;20375;-47
2021/05/12 10:28:54;;;;;;;1.20;0.60;;;18.20;99.90;;;;;;10295201;28;20480;-45
2021/05/12 10:34:38;;;;;;;6.32;0.80;;;18.00;99.90;;;;;;10282453;28;20050;-45
2021/05/12 10:40:15;;;;;;;2.33;0.60;;;18.40;99.90;;;;;;10295251;28;20807;-48
2021/05/12 10:45:41;;;;;;;5.25;1.92;;;18.70;99.90;;;;;;10304327;28;20121;-47
2021/05/12 10:51:05;;;;;;;4.53;0.80;;;18.20;99.90;;;;;;10303203;28;20073;-48
2021/05/12 10:56:42;;;;;;;5.55;0.73;;;18.50;99.90;;;;;;10300601;28;20054;-47
2021/05/12 11:02:03;;;;;;;3.50;1.58;;;18.50;99.90;;;;;;10292722;28;20097;-45
2021/05/12 11:07:24;;;;;;;7.40;1.40;;;17.90;99.90;;;;;;10279737;28;20050;-45
2021/05/12 11:12:45;;;;;;;2.20;1.00;;;17.70;99.90;;;;;;10270670;28;20553;-48
2021/05/12 11:18:06;;;;;;;3.22;0.98;;;18.50;99.90;;;;;;10246015;28;20136;-45
2021/05/12 11:23:27;;;;;;;2.67;1.30;;;19.30;99.90;;;;;;10275774;28;20043;-45
2021/05/12 11:29:07;;;;;;;2.53;1.55;;;18.90;99.90;;;;;;10270531;28;20399;-45
2021/05/12 11:34:31;;;;;;;6.57;1.42;;;18.60;99.90;;;;;;10270219;28;20053;-45
2021/05/12 11:39:55;;;;;;;3.00;0.75;;;18.30;99.90;;;;;;10279367;28;20456;-45
2021/05/12 11:45:17;;;;;;;1.98;0.88;;;17.80;99.90;;;;;;10279693;28;20125;-45
2021/05/12 11:50:39;;;;;;;9.13;1.50;;;17.80;99.90;;;;;;10271471;28;20442;-45
2021/05/12 11:56:00;;;;;;;2.15;1.23;;;17.80;99.90;;;;;;10277963;28;20153;-46
2021/05/12 12:01:22;;;;;;;5.50;0.98;;;17.50;99.90;;;;;;10229814;28;20045;-45
2021/05/12 12:06:45;;;;;;;1.85;0.80;;;17.60;99.90;;;;;;10273444;28;20129;-45
2021/05/12 12:12:07;;;;;;;3.10;0.90;;;17.60;99.90;;;;;;10273137;28;20401;-45
2021/05/12 12:17:28;;;;;;;2.88;0.85;;;17.80;99.90;;;;;;10278966;28;20085;-45
2021/05/12 12:22:50;;;;;;;2.85;0.93;;;18.00;99.90;;;;;;10263942;28;20072;-45
2021/05/12 12:28:11;;;;;;;3.78;1.23;;;17.40;99.90;;;;;;10285570;28;20057;-45
2021/05/12 12:33:32;;;;;;;2.25;0.80;;;17.10;99.90;;;;;;10286113;28;20083;-46
2021/05/12 12:38:56;;;;;;;1.75;0.50;;;17.30;99.90;;;;;;10284217;28;20061;-45
2021/05/12 12:44:20;;;;;;;3.42;0.82;;;17.70;99.90;;;;;;10285539;28;20458;-45
2021/05/12 12:49:50;;;;;;;1.48;0.40;;;18.30;99.90;;;;;;10264890;28;20133;-46
2021/05/12 12:55:33;;;;;;;0.88;0.30;;;20.00;99.90;;;;;;10290655;28;20129;-46
2021/05/12 13:00:54;;;;;;;4.30;0.57;;;21.90;93.60;;;;;;10285273;28;20053;-49
2021/05/12 13:06:28;;;;;;;1.23;0.40;;;22.20;88.10;;;;;;10277563;28;20333;-49
2021/05/12 13:11:56;;;;;;;1.65;0.40;;;22.70;93.00;;;;;;10266085;28;20047;-50
2021/05/12 13:17:17;;;;;;;1.73;0.40;;;23.00;87.40;;;;;;10276279;28;20551;-50
2021/05/12 13:22:38;;;;;;;1.20;0.38;;;23.90;85.10;;;;;;10246566;28;20093;-50
2021/05/12 13:28:01;;;;;;;1.42;0.40;;;23.70;81.60;;;;;;10282538;28;20688;-50
2021/05/12 13:33:24;;;;;;;14.60;0.65;;;22.50;86.90;;;;;;10275647;28;20387;-49
2021/05/12 13:38:46;;;;;;;1.38;0.40;;;20.90;91.40;;;;;;10277974;28;20073;-49
2021/05/12 13:44:07;;;;;;;2.05;0.50;;;20.80;94.50;;;;;;10264360;28;20203;-49
2021/05/12 13:49:28;;;;;;;1.67;0.52;;;21.40;93.70;;;;;;10275108;28;20590;-49
2021/05/12 13:54:55;;;;;;;3.65;0.50;;;22.00;95.60;;;;;;10274632;28;20482;-48
2021/05/12 14:05:56;;;;;;;;;;;21.00;95.80;;;;;;10267587;28;20042;-48
2021/05/12 14:11:17;;;;;;;3.83;0.80;;;20.90;95.40;;;;;;10274349;28;20348;-48
2021/05/12 14:22:19;;;;;;;2.58;0.75;;;20.20;96.90;;;;;;10232045;28;20351;-48
2021/05/12 14:27:41;;;;;;;0.75;0.20;;;19.70;97.90;;;;;;10279395;28;20050;-48
2021/05/12 14:33:02;;;;;;;3.10;0.35;;;19.00;99.80;;;;;;10263800;28;20492;-48
2021/05/12 14:38:23;;;;;;;13.80;1.33;;;18.90;99.90;;;;;;10253878;28;20054;-48
2021/05/12 14:43:44;;;;;;;0.80;0.30;;;18.70;99.90;;;;;;10270296;28;20082;-49
2021/05/12 14:49:06;;;;;;;3.45;0.75;;;19.10;99.90;;;;;;10280450;28;21242;-48
2021/05/12 14:54:31;;;;;;;2.55;0.30;;;19.60;99.90;;;;;;10271890;28;20329;-48
2021/05/12 15:00:02;;;;;;;7.43;1.23;;;19.70;99.90;;;;;;10270733;28;20125;-48
2021/05/12 15:10:47;;;;;;;1.40;0.50;;;19.40;99.00;;;;;;10270601;28;20054;-48
2021/05/12 15:16:08;;;;;;;2.53;0.93;;;18.50;99.90;;;;;;10279275;28;20046;-48
2021/05/12 15:21:29;;;;;;;2.30;0.45;;;18.00;99.90;;;;;;10274146;28;20031;-48
2021/05/12 15:26:51;;;;;;;3.03;1.35;;;17.90;99.90;;;;;;10269407;28;20097;-48
2021/05/12 15:32:13;;;;;;;1.90;0.50;;;17.70;99.90;;;;;;10266765;28;20137;-48
2021/05/12 15:37:33;;;;;;;2.97;1.08;;;17.60;99.90;;;;;;10269778;28;20331;-48
2021/05/12 15:42:59;;;;;;;1.35;0.47;;;17.70;99.90;;;;;;10274631;28;20077;-48
2021/05/12 15:48:20;;;;;;;6.00;0.30;;;17.70;99.90;;;;;;10273231;28;20039;-48
2021/05/12 15:53:41;;;;;;;1.25;0.40;;;17.40;99.90;;;;;;10271738;28;20043;-48
2021/05/12 15:59:02;;;;;;;1.08;0.68;;;17.10;99.90;;;;;;10282899;28;20101;-48
2021/05/12 16:04:24;;;;;;;0.90;0.50;;;17.10;99.90;;;;;;10280343;28;20225;-48
2021/05/12 16:09:45;;;;;;;1.55;0.47;;;17.00;99.90;;;;;;10271959;28;20054;-48
2021/05/12 16:15:08;;;;;;;1.40;0.70;;;16.80;99.90;;;;;;10275373;28;20042;-48
2021/05/12 16:20:29;;;;;;;2.75;0.95;;;16.60;99.90;;;;;;10272723;28;20099;-47
2021/05/12 16:25:50;;;;;;;1.70;1.05;;;16.60;99.90;;;;;;10268040;28;20070;-48
2021/05/12 16:31:11;;;;;;;1.20;0.50;;;15.80;99.90;;;;;;10270851;28;20078;-48
2021/05/12 16:36:32;;;;;;;1.20;0.32;;;15.20;99.90;;;;;;10278484;28;20148;-48
2021/05/12 16:41:53;;;;;;;4.28;0.50;;;14.80;99.90;;;;;;10271591;28;20043;-49
2021/05/12 16:47:14;;;;;;;3.72;0.95;;;14.40;99.90;;;;;;10275473;28;20050;-50
2021/05/12 16:52:37;;;;;;;3.28;0.63;;;13.90;99.90;;;;;;10272186;28;20031;-49
2021/05/12 16:57:58;;;;;;;1.10;0.52;;;13.30;99.90;;;;;;10275862;28;20501;-50
2021/05/12 17:03:19;;;;;;;2.72;0.95;;;12.60;99.90;;;;;;10269624;28;20050;-51
2021/05/12 17:08:40;;;;;;;1.38;0.68;;;12.40;99.90;;;;;;10256670;28;20295;-51
2021/05/12 17:14:01;;;;;;;14.15;1.08;;;12.20;99.90;;;;;;10260267;28;20055;-51
2021/05/12 17:19:22;;;;;;;3.30;0.80;;;12.00;99.90;;;;;;10275438;28;20536;-51
2021/05/12 17:24:43;;;;;;;2.92;0.80;;;12.00;99.90;;;;;;10273364;28;20410;-50
2021/05/12 17:30:08;;;;;;;2.45;0.95;;;12.00;99.90;;;;;;10272926;28;20035;-50
2021/05/12 17:35:30;;;;;;;2.83;1.00;;;11.90;99.90;;;;;;10275216;28;20046;-51
2021/05/12 17:40:51;;;;;;;5.40;0.98;;;11.80;99.90;;;;;;10274701;28;20077;-50
2021/05/12 17:46:12;;;;;;;2.15;0.50;;;11.60;99.90;;;;;;10247130;28;20027;-50
2021/05/12 17:51:35;;;;;;;3.35;0.57;;;11.50;99.90;;;;;;10274589;28;20046;-50
2021/05/12 17:56:56;;;;;;;3.30;0.68;;;11.50;99.90;;;;;;10271480;28;20098;-50
2021/05/12 18:02:17;;;;;;;2.03;1.20;;;11.40;99.90;;;;;;10272803;28;20057;-50
2021/05/12 18:07:39;;;;;;;1.85;0.50;;;11.40;99.90;;;;;;10280673;28;20355;-50
2021/05/12 18:18:39;;;;;;;5.57;1.15;;;11.40;99.90;;;;;;10279011;28;20826;-50
2021/05/12 18:24:00;;;;;;;1.10;0.45;;;11.60;99.90;;;;;;10268882;28;20043;-49
2021/05/12 18:29:21;;;;;;;2.40;0.90;;;11.60;99.90;;;;;;10278488;28;20565;-50
2021/05/12 18:40:06;;;;;;;3.47;1.15;;;11.60;99.90;;;;;;10291130;28;20053;-49
2021/05/12 18:45:32;;;;;;;4.38;0.90;;;11.60;99.90;;;;;;10283863;28;20471;-50
2021/05/12 18:50:53;;;;;;;5.38;1.05;;;11.50;99.90;;;;;;10276872;28;21311;-50
2021/05/12 18:56:14;;;;;;;8.45;1.25;;;11.40;99.90;;;;;;10282600;28;20052;-50
2021/05/12 19:01:35;;;;;;;1.50;0.40;;;11.30;99.90;;;;;;10282992;28;20046;-50
2021/05/12 19:07:04;;;;;;;0.95;0.40;;;11.20;99.90;;;;;;10282497;28;20077;-50
2021/05/12 19:12:33;;;;;;;2.55;0.70;;;11.20;99.90;;;;;;10281030;28;20046;-50
2021/05/12 19:18:00;;;;;;;2.38;1.20;;;11.40;99.90;;;;;;10275408;28;20344;-50
2021/05/12 19:40:47;;;;;;;;;;;11.40;99.90;;;;;;10275538;28;20290;-50
2021/05/12 19:46:08;;;;;;;4.22;0.60;;;11.30;99.90;;;;;;10277737;28;19969;-49
2021/05/12 19:51:29;;;;;;;1.55;0.70;;;11.30;99.90;;;;;;10278377;28;20474;-49
2021/05/12 20:02:40;;;;;;;3.03;1.05;;;11.20;99.90;;;;;;10229735;28;20096;-49
2021/05/12 20:13:23;;;;;;;1.67;0.50;;;11.10;99.90;;;;;;10277622;28;20039;-49
2021/05/12 20:18:44;;;;;;;7.70;1.23;;;11.00;99.90;;;;;;10262035;28;20418;-49
2021/05/12 20:24:06;;;;;;;1.08;0.57;;;10.90;99.90;;;;;;10276806;28;20420;-49
2021/05/12 20:29:27;;;;;;;2.65;1.10;;;10.90;99.90;;;;;;10278921;28;20057;-49
2021/05/12 20:40:28;;;;;;;1.65;0.75;;;10.70;99.90;;;;;;10276032;28;20506;-49
2021/05/12 20:45:51;;;;;;;2.90;1.08;;;10.60;99.90;;;;;;10272160;28;20391;-49
2021/05/12 20:51:12;;;;;;;4.18;1.38;;;10.60;99.90;;;;;;10276313;28;20145;-49
2021/05/12 20:56:33;;;;;;;3.35;0.77;;;10.50;99.90;;;;;;10279228;28;20043;-49
2021/05/12 21:01:54;;;;;;;1.80;0.60;;;10.50;99.90;;;;;;10278761;28;20150;-49
2021/05/12 21:07:15;;;;;;;1.67;0.65;;;10.40;99.90;;;;;;10271935;28;20731;-49
2021/05/12 21:12:38;;;;;;;3.40;0.68;;;10.40;99.90;;;;;;10273452;28;20482;-50
2021/05/12 21:17:59;;;;;;;2.22;0.60;;;10.40;99.90;;;;;;10271782;28;20089;-49
2021/05/12 21:23:26;;;;;;;2.85;0.82;;;10.30;99.90;;;;;;10278715;28;20517;-49
2021/05/12 21:28:47;;;;;;;4.00;0.70;;;10.30;99.90;;;;;;10274850;28;20125;-49
2021/05/12 21:34:08;;;;;;;3.13;0.75;;;10.20;99.90;;;;;;10274645;28;20034;-49
2021/05/12 21:39:29;;;;;;;1.02;0.32;;;10.20;99.90;;;;;;10289437;28;20054;-49
2021/05/12 21:44:50;;;;;;;1.60;0.68;;;10.10;99.90;;;;;;10286180;28;20070;-49
2021/05/12 21:50:12;;;;;;;3.30;0.98;;;10.00;99.90;;;;;;10282115;28;20059;-49
2021/05/12 21:55:35;;;;;;;3.92;0.60;;;9.90;99.90;;;;;;10282258;28;20046;-49
2021/05/12 22:00:56;;;;;;;3.08;1.23;;;9.90;99.90;;;;;;10284442;28;20043;-49
2021/05/12 22:33:44;;;;;;;3.50;1.10;;;9.60;99.90;;;;;;10281065;28;20049;-49
2021/05/12 22:39:05;;;;;;;1.55;0.55;;;9.70;99.90;;;;;;10273570;28;20062;-49
2021/05/12 22:44:26;;;;;;;1.50;0.75;;;9.60;99.90;;;;;;10278734;28;20050;-49
2021/05/12 22:49:47;;;;;;;4.93;1.10;;;9.60;99.90;;;;;;10274537;28;20149;-49
2021/05/12 22:55:17;;;;;;;1.95;0.80;;;9.50;99.90;;;;;;10278234;28;20464;-49
2021/05/12 23:00:38;;;;;;;2.28;0.73;;;9.50;99.90;;;;;;10276190;28;20482;-49
2021/05/12 23:05:59;;;;;;;1.77;0.93;;;9.40;99.90;;;;;;10274569;28;20038;-49
2021/05/12 23:11:20;;;;;;;3.10;0.88;;;9.40;99.90;;;;;;10274720;28;20062;-48
2021/05/12 23:16:42;;;;;;;2.63;1.00;;;9.40;99.90;;;;;;10273663;28;20108;-49
2021/05/12 23:22:03;;;;;;;2.95;1.00;;;9.30;99.90;;;;;;10269845;28;20226;-49
2021/05/12 23:27:24;;;;;;;4.10;1.17;;;9.30;99.90;;;;;;10271883;28;20078;-49
2021/05/12 23:32:45;;;;;;;3.05;0.98;;;9.30;99.90;;;;;;10269314;28;20039;-49
2021/05/12 23:38:06;;;;;;;3.05;1.88;;;9.20;99.90;;;;;;10275740;28;20058;-49
2021/05/12 23:43:27;;;;;;;3.95;1.42;;;9.10;99.90;;;;;;10276523;28;20098;-48
2021/05/12 23:48:48;;;;;;;2.70;1.00;;;9.10;99.90;;;;;;10271079;28;20046;-48
2021/05/12 23:54:09;;;;;;;4.50;1.27;;;9.10;99.90;;;;;;10270755;28;20045;-49
2021/05/12 23:59:30;;;;;;;2.80;1.02;;;9.00;99.90;;;;;;10273570;28;20061;-48
